sensor_id;sensor_type;location;lat;lon;timestamp;temperature;humidity
6210;DHT22;3138;52.550;13.148;2022-07-19T00:02:14;15.60;99.90
6210;DHT22;3138;52.550;13.148;2022-07-19T00:04:41;15.60;99.90
6210;DHT22;3138;52.550;13.148;2022-07-19T00:07:07;15.60;99.90
6210;DHT22;3138;52.550;13.148;2022-07-19T00:09:34;15.50;99.90
6210;DHT22;3138;52.550;13.148;2022-07-19T00:12:01;15.50;99.90
6210;DHT22;3138;52.550;13.148;2022-07-19T00:14:28;15.50;99.90
6210;DHT22;3138;52.550;13.148;2022-07-19T00:16:56;15.40;99.90
6210;DHT22;3138;52.550;13.148;2022-07-19T00:19:23;15.40;99.90
6210;DHT22;3138;52.550;13.148;2022-07-19T00:21:50;15.40;99.90
6210;DHT22;3138;52.550;13.148;2022-07-19T00:24:16;15.40;99.90
6210;DHT22;3138;52.550;13.148;2022-07-19T00:26:43;15.40;99.90
6210;DHT22;3138;52.550;13.148;2022-07-19T00:29:10;15.40;99.90
6210;DHT22;3138;52.550;13.148;2022-07-19T00:31:37;15.30;99.90
6210;DHT22;3138;52.550;13.148;2022-07-19T00:34:05;15.30;99.90
6210;DHT22;3138;52.550;13.148;2022-07-19T00:36:32;15.20;99.90
6210;DHT22;3138;52.550;13.148;2022-07-19T00:38:58;15.10;99.90
6210;DHT22;3138;52.550;13.148;2022-07-19T00:41:25;15.10;99.90
6210;DHT22;3138;52.550;13.148;2022-07-19T00:43:52;15.10;99.90
6210;DHT22;3138;52.550;13.148;2022-07-19T00:46:20;15.10;99.90
6210;DHT22;3138;52.550;13.148;2022-07-19T00:48:48;15.00;99.90
6210;DHT22;3138;52.550;13.148;2022-07-19T00:51:17;15.00;99.90
6210;DHT22;3138;52.550;13.148;2022-07-19T00:53:45;15.00;99.90
6210;DHT22;3138;52.550;13.148;2022-07-19T00:56:12;15.00;99.90
6210;DHT22;3138;52.550;13.148;2022-07-19T00:58:40;14.90;99.90
6210;DHT22;3138;52.550;13.148;2022-07-19T01:01:08;14.80;99.90
6210;DHT22;3138;52.550;13.148;2022-07-19T01:03:36;14.80;99.90
6210;DHT22;3138;52.550;13.148;2022-07-19T01:06:05;14.80;99.90
6210;DHT22;3138;52.550;13.148;2022-07-19T01:08:35;14.70;99.90
6210;DHT22;3138;52.550;13.148;2022-07-19T01:11:03;14.60;99.90
6210;DHT22;3138;52.550;13.148;2022-07-19T01:13:30;14.70;99.90
6210;DHT22;3138;52.550;13.148;2022-07-19T01:15:57;14.70;99.90
6210;DHT22;3138;52.550;13.148;2022-07-19T01:18:24;14.60;99.90
6210;DHT22;3138;52.550;13.148;2022-07-19T01:20:51;14.60;99.90
6210;DHT22;3138;52.550;13.148;2022-07-19T01:23:20;14.60;99.90
6210;DHT22;3138;52.550;13.148;2022-07-19T01:25:46;14.50;99.90
6210;DHT22;3138;52.550;13.148;2022-07-19T01:28:13;14.50;99.90
6210;DHT22;3138;52.550;13.148;2022-07-19T01:30:40;14.40;99.90
6210;DHT22;3138;52.550;13.148;2022-07-19T01:33:07;14.40;99.90
6210;DHT22;3138;52.550;13.148;2022-07-19T01:35:33;14.40;99.90
6210;DHT22;3138;52.550;13.148;2022-07-19T01:38:00;14.30;99.90
6210;DHT22;3138;52.550;13.148;2022-07-19T01:40:29;14.30;99.90
6210;DHT22;3138;52.550;13.148;2022-07-19T01:42:55;14.30;99.90
6210;DHT22;3138;52.550;13.148;2022-07-19T01:45:22;14.40;99.90
6210;DHT22;3138;52.550;13.148;2022-07-19T01:47:49;14.30;99.90
6210;DHT22;3138;52.550;13.148;2022-07-19T01:50:17;14.30;99.90
6210;DHT22;3138;52.550;13.148;2022-07-19T01:52:44;14.20;99.90
6210;DHT22;3138;52.550;13.148;2022-07-19T01:55:11;14.00;99.90
6210;DHT22;3138;52.550;13.148;2022-07-19T01:57:40;14.00;99.90
6210;DHT22;3138;52.550;13.148;2022-07-19T02:00:07;14.00;99.90
6210;DHT22;3138;52.550;13.148;2022-07-19T02:02:34;14.00;99.90
6210;DHT22;3138;52.550;13.148;2022-07-19T02:05:01;14.00;99.90
6210;DHT22;3138;52.550;13.148;2022-07-19T02:07:28;14.10;99.90
6210;DHT22;3138;52.550;13.148;2022-07-19T02:09:56;14.00;99.90
6210;DHT22;3138;52.550;13.148;2022-07-19T02:12:23;14.00;99.90
6210;DHT22;3138;52.550;13.148;2022-07-19T02:14:51;13.80;99.90
6210;DHT22;3138;52.550;13.148;2022-07-19T02:17:18;13.80;99.90
6210;DHT22;3138;52.550;13.148;2022-07-19T02:19:44;13.80;99.90
6210;DHT22;3138;52.550;13.148;2022-07-19T02:22:11;13.80;99.90
6210;DHT22;3138;52.550;13.148;2022-07-19T02:24:38;13.70;99.90
6210;DHT22;3138;52.550;13.148;2022-07-19T02:27:08;13.60;99.90
6210;DHT22;3138;52.550;13.148;2022-07-19T02:29:35;13.60;99.90
6210;DHT22;3138;52.550;13.148;2022-07-19T02:32:03;13.60;99.90
6210;DHT22;3138;52.550;13.148;2022-07-19T02:34:30;13.60;99.90
6210;DHT22;3138;52.550;13.148;2022-07-19T02:36:57;13.50;99.90
6210;DHT22;3138;52.550;13.148;2022-07-19T02:39:24;13.50;99.90
6210;DHT22;3138;52.550;13.148;2022-07-19T02:41:51;13.40;99.90
6210;DHT22;3138;52.550;13.148;2022-07-19T02:44:17;13.50;99.90
6210;DHT22;3138;52.550;13.148;2022-07-19T02:46:44;13.40;99.90
6210;DHT22;3138;52.550;13.148;2022-07-19T02:49:12;13.40;99.90
6210;DHT22;3138;52.550;13.148;2022-07-19T02:51:39;13.40;99.90
6210;DHT22;3138;52.550;13.148;2022-07-19T02:54:06;13.40;99.90
6210;DHT22;3138;52.550;13.148;2022-07-19T02:56:32;13.30;99.90
6210;DHT22;3138;52.550;13.148;2022-07-19T02:59:02;13.40;99.90
6210;DHT22;3138;52.550;13.148;2022-07-19T03:01:29;13.40;99.90
6210;DHT22;3138;52.550;13.148;2022-07-19T03:03:56;13.40;99.90
6210;DHT22;3138;52.550;13.148;2022-07-19T03:06:24;13.30;99.90
6210;DHT22;3138;52.550;13.148;2022-07-19T03:08:51;13.40;99.90
6210;DHT22;3138;52.550;13.148;2022-07-19T03:11:18;13.50;99.90
6210;DHT22;3138;52.550;13.148;2022-07-19T03:13:45;13.40;99.90
6210;DHT22;3138;52.550;13.148;2022-07-19T03:16:11;13.30;99.90
6210;DHT22;3138;52.550;13.148;2022-07-19T03:18:38;13.40;99.90
6210;DHT22;3138;52.550;13.148;2022-07-19T03:21:05;13.50;99.90
6210;DHT22;3138;52.550;13.148;2022-07-19T03:23:34;13.40;99.90
6210;DHT22;3138;52.550;13.148;2022-07-19T03:26:01;13.40;99.90
6210;DHT22;3138;52.550;13.148;2022-07-19T03:28:28;13.50;99.90
6210;DHT22;3138;52.550;13.148;2022-07-19T03:30:55;13.60;99.90
6210;DHT22;3138;52.550;13.148;2022-07-19T03:33:22;13.50;99.90
6210;DHT22;3138;52.550;13.148;2022-07-19T03:35:49;13.40;99.90
6210;DHT22;3138;52.550;13.148;2022-07-19T03:38:16;13.50;99.90
6210;DHT22;3138;52.550;13.148;2022-07-19T03:40:44;13.70;99.90
6210;DHT22;3138;52.550;13.148;2022-07-19T03:43:12;13.80;99.90
6210;DHT22;3138;52.550;13.148;2022-07-19T03:45:39;14.00;99.90
6210;DHT22;3138;52.550;13.148;2022-07-19T03:48:06;14.70;99.90
6210;DHT22;3138;52.550;13.148;2022-07-19T03:50:33;15.40;99.90
6210;DHT22;3138;52.550;13.148;2022-07-19T03:53:00;16.00;99.90
6210;DHT22;3138;52.550;13.148;2022-07-19T03:55:26;16.00;99.90
6210;DHT22;3138;52.550;13.148;2022-07-19T03:57:54;16.20;99.90
6210;DHT22;3138;52.550;13.148;2022-07-19T04:00:21;16.60;99.90
6210;DHT22;3138;52.550;13.148;2022-07-19T04:02:48;16.90;99.90
6210;DHT22;3138;52.550;13.148;2022-07-19T04:05:15;17.10;99.90
6210;DHT22;3138;52.550;13.148;2022-07-19T04:07:42;17.30;99.90
6210;DHT22;3138;52.550;13.148;2022-07-19T04:10:09;17.20;99.90
6210;DHT22;3138;52.550;13.148;2022-07-19T04:12:36;17.50;99.90
6210;DHT22;3138;52.550;13.148;2022-07-19T04:15:06;18.10;99.90
6210;DHT22;3138;52.550;13.148;2022-07-19T04:17:32;18.80;99.90
6210;DHT22;3138;52.550;13.148;2022-07-19T04:19:59;19.10;99.90
6210;DHT22;3138;52.550;13.148;2022-07-19T04:22:26;19.10;99.90
6210;DHT22;3138;52.550;13.148;2022-07-19T04:24:53;18.60;99.90
6210;DHT22;3138;52.550;13.148;2022-07-19T04:27:19;17.60;99.90
6210;DHT22;3138;52.550;13.148;2022-07-19T04:29:47;17.20;99.90
6210;DHT22;3138;52.550;13.148;2022-07-19T04:32:15;16.90;99.90
6210;DHT22;3138;52.550;13.148;2022-07-19T04:34:42;17.00;99.90
6210;DHT22;3138;52.550;13.148;2022-07-19T04:37:08;17.10;99.90
6210;DHT22;3138;52.550;13.148;2022-07-19T04:39:35;17.10;99.90
6210;DHT22;3138;52.550;13.148;2022-07-19T04:42:02;17.40;99.90
6210;DHT22;3138;52.550;13.148;2022-07-19T04:44:29;17.60;99.90
6210;DHT22;3138;52.550;13.148;2022-07-19T04:46:56;17.80;99.90
6210;DHT22;3138;52.550;13.148;2022-07-19T04:49:24;18.10;99.90
6210;DHT22;3138;52.550;13.148;2022-07-19T04:51:50;18.30;99.90
6210;DHT22;3138;52.550;13.148;2022-07-19T04:54:17;18.60;99.90
6210;DHT22;3138;52.550;13.148;2022-07-19T04:56:44;19.00;99.90
6210;DHT22;3138;52.550;13.148;2022-07-19T04:59:11;19.30;99.90
6210;DHT22;3138;52.550;13.148;2022-07-19T05:01:37;19.50;99.90
6210;DHT22;3138;52.550;13.148;2022-07-19T05:04:04;19.60;99.90
6210;DHT22;3138;52.550;13.148;2022-07-19T05:06:32;19.80;99.90
6210;DHT22;3138;52.550;13.148;2022-07-19T05:08:59;19.90;99.90
6210;DHT22;3138;52.550;13.148;2022-07-19T05:11:26;20.10;99.90
6210;DHT22;3138;52.550;13.148;2022-07-19T05:13:53;20.20;99.90
6210;DHT22;3138;52.550;13.148;2022-07-19T05:16:20;20.50;99.90
6210;DHT22;3138;52.550;13.148;2022-07-19T05:18:47;20.60;99.90
6210;DHT22;3138;52.550;13.148;2022-07-19T05:21:13;20.80;99.90
6210;DHT22;3138;52.550;13.148;2022-07-19T05:23:41;21.00;99.90
6210;DHT22;3138;52.550;13.148;2022-07-19T05:26:08;21.10;99.90
6210;DHT22;3138;52.550;13.148;2022-07-19T05:28:35;21.10;99.90
6210;DHT22;3138;52.550;13.148;2022-07-19T05:31:03;21.30;99.90
6210;DHT22;3138;52.550;13.148;2022-07-19T05:33:30;21.40;99.90
6210;DHT22;3138;52.550;13.148;2022-07-19T05:35:57;21.80;99.90
6210;DHT22;3138;52.550;13.148;2022-07-19T05:38:23;22.00;99.90
6210;DHT22;3138;52.550;13.148;2022-07-19T05:40:51;22.20;99.90
6210;DHT22;3138;52.550;13.148;2022-07-19T05:43:18;22.30;97.00
6210;DHT22;3138;52.550;13.148;2022-07-19T05:45:45;22.30;95.80
6210;DHT22;3138;52.550;13.148;2022-07-19T05:48:12;22.50;93.50
6210;DHT22;3138;52.550;13.148;2022-07-19T05:50:38;22.90;94.20
6210;DHT22;3138;52.550;13.148;2022-07-19T05:53:05;23.20;90.90
6210;DHT22;3138;52.550;13.148;2022-07-19T05:55:32;23.50;93.10
6210;DHT22;3138;52.550;13.148;2022-07-19T05:58:00;23.50;90.60
6210;DHT22;3138;52.550;13.148;2022-07-19T06:00:27;23.60;91.60
6210;DHT22;3138;52.550;13.148;2022-07-19T06:02:54;23.80;92.20
6210;DHT22;3138;52.550;13.148;2022-07-19T06:05:20;23.90;90.30
6210;DHT22;3138;52.550;13.148;2022-07-19T06:07:47;24.20;90.40
6210;DHT22;3138;52.550;13.148;2022-07-19T06:10:14;24.30;88.50
6210;DHT22;3138;52.550;13.148;2022-07-19T06:12:41;24.60;81.60
6210;DHT22;3138;52.550;13.148;2022-07-19T06:15:10;24.70;80.20
6210;DHT22;3138;52.550;13.148;2022-07-19T06:17:37;24.70;79.00
6210;DHT22;3138;52.550;13.148;2022-07-19T06:20:04;24.80;77.30
6210;DHT22;3138;52.550;13.148;2022-07-19T06:22:31;24.90;75.50
6210;DHT22;3138;52.550;13.148;2022-07-19T06:24:59;25.00;75.50
6210;DHT22;3138;52.550;13.148;2022-07-19T06:27:25;25.20;75.50
6210;DHT22;3138;52.550;13.148;2022-07-19T06:29:52;25.00;69.70
6210;DHT22;3138;52.550;13.148;2022-07-19T06:32:20;25.10;70.90
6210;DHT22;3138;52.550;13.148;2022-07-19T06:34:47;25.30;69.20
6210;DHT22;3138;52.550;13.148;2022-07-19T06:37:14;25.50;70.50
6210;DHT22;3138;52.550;13.148;2022-07-19T06:39:41;25.80;66.70
6210;DHT22;3138;52.550;13.148;2022-07-19T06:42:07;25.70;63.20
6210;DHT22;3138;52.550;13.148;2022-07-19T06:44:34;25.50;67.20
6210;DHT22;3138;52.550;13.148;2022-07-19T06:47:01;25.80;69.40
6210;DHT22;3138;52.550;13.148;2022-07-19T06:49:29;25.90;68.80
6210;DHT22;3138;52.550;13.148;2022-07-19T06:51:56;26.20;68.40
6210;DHT22;3138;52.550;13.148;2022-07-19T06:54:23;26.10;63.30
6210;DHT22;3138;52.550;13.148;2022-07-19T06:56:49;26.10;58.70
6210;DHT22;3138;52.550;13.148;2022-07-19T06:59:16;26.40;62.20
6210;DHT22;3138;52.550;13.148;2022-07-19T07:01:43;27.00;59.70
6210;DHT22;3138;52.550;13.148;2022-07-19T07:04:10;26.70;58.90
6210;DHT22;3138;52.550;13.148;2022-07-19T07:06:38;27.00;58.00
6210;DHT22;3138;52.550;13.148;2022-07-19T07:09:05;27.20;58.00
6210;DHT22;3138;52.550;13.148;2022-07-19T07:11:32;27.40;60.90
6210;DHT22;3138;52.550;13.148;2022-07-19T07:13:59;27.70;58.20
6210;DHT22;3138;52.550;13.148;2022-07-19T07:16:26;27.60;55.90
6210;DHT22;3138;52.550;13.148;2022-07-19T07:18:52;27.20;54.40
6210;DHT22;3138;52.550;13.148;2022-07-19T07:21:19;27.50;54.60
6210;DHT22;3138;52.550;13.148;2022-07-19T07:23:47;27.30;53.40
6210;DHT22;3138;52.550;13.148;2022-07-19T07:26:14;27.70;55.50
6210;DHT22;3138;52.550;13.148;2022-07-19T07:28:41;27.50;53.70
6210;DHT22;3138;52.550;13.148;2022-07-19T07:31:08;27.50;53.20
6210;DHT22;3138;52.550;13.148;2022-07-19T07:33:34;27.70;56.90
6210;DHT22;3138;52.550;13.148;2022-07-19T07:36:01;28.10;54.90
6210;DHT22;3138;52.550;13.148;2022-07-19T07:38:28;28.20;53.40
6210;DHT22;3138;52.550;13.148;2022-07-19T07:40:56;28.30;51.30
6210;DHT22;3138;52.550;13.148;2022-07-19T07:43:23;28.50;51.60
6210;DHT22;3138;52.550;13.148;2022-07-19T07:45:49;29.00;50.10
6210;DHT22;3138;52.550;13.148;2022-07-19T07:48:16;29.00;46.80
6210;DHT22;3138;52.550;13.148;2022-07-19T07:50:43;28.90;46.40
6210;DHT22;3138;52.550;13.148;2022-07-19T07:53:10;28.80;48.40
6210;DHT22;3138;52.550;13.148;2022-07-19T07:55:36;28.80;46.80
6210;DHT22;3138;52.550;13.148;2022-07-19T07:58:06;28.60;45.90
6210;DHT22;3138;52.550;13.148;2022-07-19T08:00:34;28.40;45.00
6210;DHT22;3138;52.550;13.148;2022-07-19T08:03:01;28.80;45.50
6210;DHT22;3138;52.550;13.148;2022-07-19T08:05:28;28.90;45.30
6210;DHT22;3138;52.550;13.148;2022-07-19T08:07:55;28.90;46.10
6210;DHT22;3138;52.550;13.148;2022-07-19T08:10:23;28.90;45.50
6210;DHT22;3138;52.550;13.148;2022-07-19T08:12:50;28.80;44.60
6210;DHT22;3138;52.550;13.148;2022-07-19T08:15:19;28.90;44.00
6210;DHT22;3138;52.550;13.148;2022-07-19T08:17:46;29.10;43.70
6210;DHT22;3138;52.550;13.148;2022-07-19T08:20:13;29.20;43.80
6210;DHT22;3138;52.550;13.148;2022-07-19T08:22:40;29.30;44.20
6210;DHT22;3138;52.550;13.148;2022-07-19T08:25:08;29.20;43.40
6210;DHT22;3138;52.550;13.148;2022-07-19T08:27:35;29.40;44.50
6210;DHT22;3138;52.550;13.148;2022-07-19T08:30:02;29.50;44.50
6210;DHT22;3138;52.550;13.148;2022-07-19T08:32:31;29.50;44.00
6210;DHT22;3138;52.550;13.148;2022-07-19T08:34:58;30.30;45.10
6210;DHT22;3138;52.550;13.148;2022-07-19T08:37:25;30.00;43.70
6210;DHT22;3138;52.550;13.148;2022-07-19T08:39:51;30.10;42.00
6210;DHT22;3138;52.550;13.148;2022-07-19T08:42:19;29.80;42.20
6210;DHT22;3138;52.550;13.148;2022-07-19T08:44:47;30.20;43.20
6210;DHT22;3138;52.550;13.148;2022-07-19T08:47:14;30.30;44.70
6210;DHT22;3138;52.550;13.148;2022-07-19T08:49:43;30.10;42.10
6210;DHT22;3138;52.550;13.148;2022-07-19T08:52:10;30.40;43.30
6210;DHT22;3138;52.550;13.148;2022-07-19T08:54:37;30.30;41.30
6210;DHT22;3138;52.550;13.148;2022-07-19T08:57:05;30.20;42.70
6210;DHT22;3138;52.550;13.148;2022-07-19T08:59:49;30.40;42.80
6210;DHT22;3138;52.550;13.148;2022-07-19T09:02:16;30.90;42.50
6210;DHT22;3138;52.550;13.148;2022-07-19T09:04:58;30.90;42.20
6210;DHT22;3138;52.550;13.148;2022-07-19T09:07:26;30.90;40.30
6210;DHT22;3138;52.550;13.148;2022-07-19T09:09:52;30.90;41.00
6210;DHT22;3138;52.550;13.148;2022-07-19T09:12:58;30.80;40.30
6210;DHT22;3138;52.550;13.148;2022-07-19T09:15:43;30.80;39.10
6210;DHT22;3138;52.550;13.148;2022-07-19T09:18:12;30.90;39.20
6210;DHT22;3138;52.550;13.148;2022-07-19T09:20:40;31.50;43.10
6210;DHT22;3138;52.550;13.148;2022-07-19T09:23:07;31.50;38.90
6210;DHT22;3138;52.550;13.148;2022-07-19T09:25:36;31.00;37.80
6210;DHT22;3138;52.550;13.148;2022-07-19T09:28:03;31.30;41.50
6210;DHT22;3138;52.550;13.148;2022-07-19T09:30:35;31.40;39.10
6210;DHT22;3138;52.550;13.148;2022-07-19T09:33:11;31.70;41.10
6210;DHT22;3138;52.550;13.148;2022-07-19T09:35:41;32.10;42.10
6210;DHT22;3138;52.550;13.148;2022-07-19T09:38:20;32.00;42.20
6210;DHT22;3138;52.550;13.148;2022-07-19T09:40:47;32.40;38.90
6210;DHT22;3138;52.550;13.148;2022-07-19T09:43:15;32.30;35.80
6210;DHT22;3138;52.550;13.148;2022-07-19T09:45:43;32.20;35.00
6210;DHT22;3138;52.550;13.148;2022-07-19T09:48:10;31.90;34.00
6210;DHT22;3138;52.550;13.148;2022-07-19T09:50:37;32.30;37.80
6210;DHT22;3138;52.550;13.148;2022-07-19T09:53:06;32.60;35.60
6210;DHT22;3138;52.550;13.148;2022-07-19T09:55:33;32.80;36.90
6210;DHT22;3138;52.550;13.148;2022-07-19T09:58:00;33.00;36.90
6210;DHT22;3138;52.550;13.148;2022-07-19T10:00:29;32.70;31.40
6210;DHT22;3138;52.550;13.148;2022-07-19T10:02:57;32.50;33.90
6210;DHT22;3138;52.550;13.148;2022-07-19T10:05:25;32.30;32.30
6210;DHT22;3138;52.550;13.148;2022-07-19T10:07:53;32.20;32.80
6210;DHT22;3138;52.550;13.148;2022-07-19T10:10:22;32.90;34.80
6210;DHT22;3138;52.550;13.148;2022-07-19T10:12:50;32.80;30.80
6210;DHT22;3138;52.550;13.148;2022-07-19T10:15:19;32.60;30.50
6210;DHT22;3138;52.550;13.148;2022-07-19T10:17:54;32.50;30.10
6210;DHT22;3138;52.550;13.148;2022-07-19T10:20:24;32.50;30.40
6210;DHT22;3138;52.550;13.148;2022-07-19T10:22:52;32.50;30.10
6210;DHT22;3138;52.550;13.148;2022-07-19T10:25:19;32.60;33.60
6210;DHT22;3138;52.550;13.148;2022-07-19T10:27:50;32.90;32.70
6210;DHT22;3138;52.550;13.148;2022-07-19T10:30:23;32.80;33.60
6210;DHT22;3138;52.550;13.148;2022-07-19T10:32:52;33.00;29.80
6210;DHT22;3138;52.550;13.148;2022-07-19T10:35:21;33.50;30.10
6210;DHT22;3138;52.550;13.148;2022-07-19T10:37:50;33.90;30.00
6210;DHT22;3138;52.550;13.148;2022-07-19T10:40:40;34.30;29.50
6210;DHT22;3138;52.550;13.148;2022-07-19T10:43:10;34.10;30.60
6210;DHT22;3138;52.550;13.148;2022-07-19T10:45:38;33.70;30.90
6210;DHT22;3138;52.550;13.148;2022-07-19T10:48:10;33.50;29.50
6210;DHT22;3138;52.550;13.148;2022-07-19T10:50:54;33.20;29.80
6210;DHT22;3138;52.550;13.148;2022-07-19T10:56:33;33.30;29.30
6210;DHT22;3138;52.550;13.148;2022-07-19T10:59:05;33.70;28.80
6210;DHT22;3138;52.550;13.148;2022-07-19T11:01:34;33.30;31.20
6210;DHT22;3138;52.550;13.148;2022-07-19T11:04:24;33.50;30.40
6210;DHT22;3138;52.550;13.148;2022-07-19T11:06:51;33.40;26.30
6210;DHT22;3138;52.550;13.148;2022-07-19T11:09:18;33.20;27.30
6210;DHT22;3138;52.550;13.148;2022-07-19T11:11:45;33.30;27.20
6210;DHT22;3138;52.550;13.148;2022-07-19T11:14:13;33.40;28.50
6210;DHT22;3138;52.550;13.148;2022-07-19T11:16:40;33.60;28.10
6210;DHT22;3138;52.550;13.148;2022-07-19T11:19:09;34.10;26.70
6210;DHT22;3138;52.550;13.148;2022-07-19T11:21:36;33.70;26.80
6210;DHT22;3138;52.550;13.148;2022-07-19T11:24:03;34.00;27.50
6210;DHT22;3138;52.550;13.148;2022-07-19T11:26:35;34.00;26.40
6210;DHT22;3138;52.550;13.148;2022-07-19T11:29:02;33.90;24.90
6210;DHT22;3138;52.550;13.148;2022-07-19T11:31:30;34.20;25.50
6210;DHT22;3138;52.550;13.148;2022-07-19T11:33:58;34.30;24.30
6210;DHT22;3138;52.550;13.148;2022-07-19T11:36:26;33.80;23.90
6210;DHT22;3138;52.550;13.148;2022-07-19T11:38:55;33.80;24.60
6210;DHT22;3138;52.550;13.148;2022-07-19T11:41:26;33.80;24.10
6210;DHT22;3138;52.550;13.148;2022-07-19T11:43:54;34.00;23.50
6210;DHT22;3138;52.550;13.148;2022-07-19T11:46:22;33.80;23.40
6210;DHT22;3138;52.550;13.148;2022-07-19T11:48:55;34.10;24.10
6210;DHT22;3138;52.550;13.148;2022-07-19T11:51:22;34.50;24.80
6210;DHT22;3138;52.550;13.148;2022-07-19T11:53:50;34.30;25.30
6210;DHT22;3138;52.550;13.148;2022-07-19T11:56:20;34.40;25.20
6210;DHT22;3138;52.550;13.148;2022-07-19T11:58:48;34.20;24.40
6210;DHT22;3138;52.550;13.148;2022-07-19T12:01:15;34.10;25.20
6210;DHT22;3138;52.550;13.148;2022-07-19T12:03:54;34.70;24.70
6210;DHT22;3138;52.550;13.148;2022-07-19T12:06:34;34.40;24.40
6210;DHT22;3138;52.550;13.148;2022-07-19T12:09:04;34.40;25.30
6210;DHT22;3138;52.550;13.148;2022-07-19T12:11:38;34.70;24.50
6210;DHT22;3138;52.550;13.148;2022-07-19T12:14:22;34.60;25.80
6210;DHT22;3138;52.550;13.148;2022-07-19T12:16:50;34.50;24.90
6210;DHT22;3138;52.550;13.148;2022-07-19T12:19:18;34.70;25.50
6210;DHT22;3138;52.550;13.148;2022-07-19T12:21:46;34.70;23.40
6210;DHT22;3138;52.550;13.148;2022-07-19T12:24:15;34.70;24.00
6210;DHT22;3138;52.550;13.148;2022-07-19T12:26:53;34.60;23.90
6210;DHT22;3138;52.550;13.148;2022-07-19T12:29:22;34.50;23.40
6210;DHT22;3138;52.550;13.148;2022-07-19T12:31:51;34.50;23.80
6210;DHT22;3138;52.550;13.148;2022-07-19T12:34:20;34.40;24.40
6210;DHT22;3138;52.550;13.148;2022-07-19T12:36:47;34.70;26.70
6210;DHT22;3138;52.550;13.148;2022-07-19T12:39:22;34.80;25.30
6210;DHT22;3138;52.550;13.148;2022-07-19T12:41:57;34.70;24.00
6210;DHT22;3138;52.550;13.148;2022-07-19T12:44:25;34.90;24.00
6210;DHT22;3138;52.550;13.148;2022-07-19T12:46:52;34.90;23.50
6210;DHT22;3138;52.550;13.148;2022-07-19T12:49:21;34.90;25.00
6210;DHT22;3138;52.550;13.148;2022-07-19T12:51:47;35.20;26.60
6210;DHT22;3138;52.550;13.148;2022-07-19T12:54:14;35.40;25.90
6210;DHT22;3138;52.550;13.148;2022-07-19T12:56:41;35.40;24.10
6210;DHT22;3138;52.550;13.148;2022-07-19T12:59:08;34.80;23.40
6210;DHT22;3138;52.550;13.148;2022-07-19T13:01:52;35.00;25.70
6210;DHT22;3138;52.550;13.148;2022-07-19T13:04:20;35.40;26.20
6210;DHT22;3138;52.550;13.148;2022-07-19T13:06:47;35.60;25.10
6210;DHT22;3138;52.550;13.148;2022-07-19T13:09:14;35.50;24.10
6210;DHT22;3138;52.550;13.148;2022-07-19T13:11:41;35.30;24.80
6210;DHT22;3138;52.550;13.148;2022-07-19T13:14:08;35.10;22.70
6210;DHT22;3138;52.550;13.148;2022-07-19T13:16:37;35.00;22.70
6210;DHT22;3138;52.550;13.148;2022-07-19T13:19:04;35.10;23.30
6210;DHT22;3138;52.550;13.148;2022-07-19T13:21:32;34.80;23.70
6210;DHT22;3138;52.550;13.148;2022-07-19T13:23:59;35.10;22.90
6210;DHT22;3138;52.550;13.148;2022-07-19T13:26:26;35.20;24.40
6210;DHT22;3138;52.550;13.148;2022-07-19T13:28:52;35.10;24.10
6210;DHT22;3138;52.550;13.148;2022-07-19T13:31:21;35.20;24.30
6210;DHT22;3138;52.550;13.148;2022-07-19T13:33:48;35.00;24.90
6210;DHT22;3138;52.550;13.148;2022-07-19T13:36:15;35.30;25.10
6210;DHT22;3138;52.550;13.148;2022-07-19T13:38:43;35.30;24.40
6210;DHT22;3138;52.550;13.148;2022-07-19T13:41:10;35.40;24.30
6210;DHT22;3138;52.550;13.148;2022-07-19T13:43:37;35.10;23.30
6210;DHT22;3138;52.550;13.148;2022-07-19T13:46:04;35.00;23.20
6210;DHT22;3138;52.550;13.148;2022-07-19T13:48:31;35.00;23.70
6210;DHT22;3138;52.550;13.148;2022-07-19T13:50:57;35.20;24.40
6210;DHT22;3138;52.550;13.148;2022-07-19T13:53:24;35.50;23.80
6210;DHT22;3138;52.550;13.148;2022-07-19T13:55:52;35.70;24.50
6210;DHT22;3138;52.550;13.148;2022-07-19T13:58:19;35.70;22.10
6210;DHT22;3138;52.550;13.148;2022-07-19T14:00:46;35.50;21.20
6210;DHT22;3138;52.550;13.148;2022-07-19T14:03:13;35.40;21.30
6210;DHT22;3138;52.550;13.148;2022-07-19T14:05:42;35.40;21.10
6210;DHT22;3138;52.550;13.148;2022-07-19T14:08:09;35.40;22.00
6210;DHT22;3138;52.550;13.148;2022-07-19T14:10:37;34.90;21.00
6210;DHT22;3138;52.550;13.148;2022-07-19T14:13:05;34.80;21.30
6210;DHT22;3138;52.550;13.148;2022-07-19T14:15:33;34.80;21.40
6210;DHT22;3138;52.550;13.148;2022-07-19T14:18:00;34.90;20.90
6210;DHT22;3138;52.550;13.148;2022-07-19T14:20:27;35.10;22.20
6210;DHT22;3138;52.550;13.148;2022-07-19T14:22:54;35.20;22.30
6210;DHT22;3138;52.550;13.148;2022-07-19T14:25:21;35.30;21.20
6210;DHT22;3138;52.550;13.148;2022-07-19T14:27:48;35.00;22.50
6210;DHT22;3138;52.550;13.148;2022-07-19T14:30:16;35.40;22.00
6210;DHT22;3138;52.550;13.148;2022-07-19T14:32:43;35.30;22.90
6210;DHT22;3138;52.550;13.148;2022-07-19T14:35:10;35.30;21.40
6210;DHT22;3138;52.550;13.148;2022-07-19T14:37:37;35.20;20.20
6210;DHT22;3138;52.550;13.148;2022-07-19T14:40:05;35.40;24.10
6210;DHT22;3138;52.550;13.148;2022-07-19T14:42:32;35.40;21.10
6210;DHT22;3138;52.550;13.148;2022-07-19T14:44:59;35.20;22.60
6210;DHT22;3138;52.550;13.148;2022-07-19T14:47:29;35.10;22.60
6210;DHT22;3138;52.550;13.148;2022-07-19T14:49:56;35.10;21.40
6210;DHT22;3138;52.550;13.148;2022-07-19T14:52:22;35.10;21.60
6210;DHT22;3138;52.550;13.148;2022-07-19T14:54:49;35.20;20.10
6210;DHT22;3138;52.550;13.148;2022-07-19T14:57:16;35.00;20.10
6210;DHT22;3138;52.550;13.148;2022-07-19T14:59:43;35.10;19.80
6210;DHT22;3138;52.550;13.148;2022-07-19T15:02:10;35.00;20.40
6210;DHT22;3138;52.550;13.148;2022-07-19T15:04:38;35.00;20.90
6210;DHT22;3138;52.550;13.148;2022-07-19T15:07:05;34.90;21.60
6210;DHT22;3138;52.550;13.148;2022-07-19T15:09:32;34.80;20.70
6210;DHT22;3138;52.550;13.148;2022-07-19T15:11:59;34.80;20.00
6210;DHT22;3138;52.550;13.148;2022-07-19T15:14:27;34.80;20.50
6210;DHT22;3138;52.550;13.148;2022-07-19T15:16:56;34.90;21.60
6210;DHT22;3138;52.550;13.148;2022-07-19T15:19:23;34.90;20.90
6210;DHT22;3138;52.550;13.148;2022-07-19T15:21:51;34.90;21.30
6210;DHT22;3138;52.550;13.148;2022-07-19T15:24:19;34.80;20.80
6210;DHT22;3138;52.550;13.148;2022-07-19T15:26:46;34.70;22.10
6210;DHT22;3138;52.550;13.148;2022-07-19T15:29:14;34.70;21.80
6210;DHT22;3138;52.550;13.148;2022-07-19T15:31:42;34.60;22.20
6210;DHT22;3138;52.550;13.148;2022-07-19T15:34:09;34.80;22.30
6210;DHT22;3138;52.550;13.148;2022-07-19T15:36:36;34.80;21.70
6210;DHT22;3138;52.550;13.148;2022-07-19T15:39:04;34.80;22.20
6210;DHT22;3138;52.550;13.148;2022-07-19T15:41:31;34.70;22.00
6210;DHT22;3138;52.550;13.148;2022-07-19T15:43:59;34.90;22.50
6210;DHT22;3138;52.550;13.148;2022-07-19T15:46:26;34.70;21.70
6210;DHT22;3138;52.550;13.148;2022-07-19T15:48:54;34.60;21.60
6210;DHT22;3138;52.550;13.148;2022-07-19T15:51:21;34.50;21.90
6210;DHT22;3138;52.550;13.148;2022-07-19T15:53:48;34.40;21.50